Time;durP1;ratioP1;P1;durP2;ratioP2;P2;SDS_P1;SDS_P2;PMS_P1;PMS_P2;Temp;Humidity;BMP_temperature;BMP_pressure;BME280_temperature;BME280_humidity;BME280_pressure;Samples;Min_cycle;Max_cycle;Signal;HPM_P1;HPM_P2
2022/09/09 00:00:55;;;;;;;;;;;;;;;23.06;58.73;99274.91;4480864;32;34065;-63
2022/09/09 00:03:24;;;;;;;;;;;;;;;23.05;58.69;99277.84;4468299;32;34121;-62
2022/09/09 00:05:59;;;;;;;;;;;;;;;23.31;57.80;99277.06;4467365;32;34642;-62
2022/09/09 00:08:30;;;;;;;;;;;;;;;23.31;58.10;99275.16;4474412;31;34349;-63
2022/09/09 00:10:58;;;;;;;;;;;;;;;23.17;58.76;99268.00;4480415;32;34033;-63
2022/09/09 00:13:45;;;;;;;;;;;;;;;22.97;59.40;99265.22;4475064;32;35089;-63
2022/09/09 00:16:16;;;;;;;;;;;;;;;23.05;58.87;99286.03;4477249;32;34365;-63
2022/09/09 00:19:03;;;;;;;;;;;;;;;22.93;59.65;99281.19;4467863;32;33850;-63
2022/09/09 00:21:34;;;;;;;;;;;;;;;23.05;59.41;99291.47;4479521;32;33906;-63
2022/09/09 00:24:08;;;;;;;;;;;;;;;23.31;58.55;99285.25;4477363;31;35713;-63
2022/09/09 00:26:38;;;;;;;;;;;;;;;23.26;58.32;99277.66;4477516;32;34024;-62
2022/09/09 00:29:11;;;;;;;;;;;;;;;23.38;58.32;99276.00;4476139;32;34904;-62
2022/09/09 00:31:39;;;;;;;;;;;;;;;23.46;57.80;99280.41;4473244;32;35064;-63
2022/09/09 00:34:13;;;;;;;;;;;;;;;23.46;57.67;99269.47;4477970;31;35142;-62
2022/09/09 00:36:41;;;;;;;;;;;;;;;23.34;58.02;99284.81;4478894;32;33582;-63
2022/09/09 00:39:10;;;;;;;;;;;;;;;23.48;57.42;99276.44;4474466;32;34182;-63
2022/09/09 00:41:46;;;;;;;;;;;;;;;22.94;58.92;99285.59;4462946;32;33956;-63
2022/09/09 00:44:36;;;;;;;;;;;;;;;23.05;58.33;99286.03;4477308;32;34727;-63
2022/09/09 00:47:18;;;;;;;;;;;;;;;23.16;58.31;99285.44;4477770;31;33634;-63
2022/09/09 00:50:06;;;;;;;;;;;;;;;23.00;58.82;99276.56;4465770;32;35633;-62
2022/09/09 00:52:36;;;;;;;;;;;;;;;23.42;57.44;99274.53;4476021;32;35183;-62
2022/09/09 00:55:22;;;;;;;;;;;;;;;23.30;58.08;99278.09;4476030;32;34245;-63
2022/09/09 00:57:51;;;;;;;;;;;;;;;23.35;57.80;99284.63;4477956;32;33446;-63
2022/09/09 01:00:49;;;;;;;;;;;;;;;23.26;58.40;99285.84;4481120;32;33448;-62
2022/09/09 01:03:31;;;;;;;;;;;;;;;23.12;58.88;99295.09;4467487;32;34205;-63
2022/09/09 01:06:16;;;;;;;;;;;;;;;23.27;58.30;99294.88;4480605;32;34455;-62
2022/09/09 01:08:55;;;;;;;;;;;;;;;23.12;58.50;99293.19;4484475;32;34357;-63
2022/09/09 01:11:27;;;;;;;;;;;;;;;22.92;58.88;99290.38;4477670;32;33540;-62
2022/09/09 01:14:10;;;;;;;;;;;;;;;23.00;58.72;99298.41;4474522;32;34071;-62
2022/09/09 01:16:38;;;;;;;;;;;;;;;22.78;59.41;99307.75;4467471;32;35108;-62
2022/09/09 01:19:05;;;;;;;;;;;;;;;22.98;58.66;99305.09;4480323;32;33891;-62
2022/09/09 01:21:35;;;;;;;;;;;;;;;22.38;60.83;99301.28;4484062;32;34116;-63
2022/09/09 01:24:02;;;;;;;;;;;;;;;21.71;62.24;99308.16;4472975;32;34346;-62
2022/09/09 01:26:33;;;;;;;;;;;;;;;22.45;59.79;99318.53;4470171;32;33979;-63
2022/09/09 01:29:01;;;;;;;;;;;;;;;22.49;59.81;99314.34;4479803;32;33822;-62
2022/09/09 01:31:30;;;;;;;;;;;;;;;22.62;59.60;99313.56;4482886;32;34105;-62
2022/09/09 01:33:58;;;;;;;;;;;;;;;22.76;58.78;99318.00;4482587;32;32886;-63
2022/09/09 01:36:29;;;;;;;;;;;;;;;22.73;58.49;99315.72;4484066;32;33442;-62
2022/09/09 01:38:57;;;;;;;;;;;;;;;22.96;57.91;99320.88;4470270;32;32979;-63
2022/09/09 01:41:24;;;;;;;;;;;;;;;22.90;57.87;99316.19;4468897;32;34877;-63
2022/09/09 01:43:53;;;;;;;;;;;;;;;22.34;59.69;99330.81;4482585;32;35342;-63
2022/09/09 01:46:21;;;;;;;;;;;;;;;22.42;59.41;99329.81;4472169;32;34372;-62
2022/09/09 01:48:51;;;;;;;;;;;;;;;22.65;58.68;99334.97;4479526;32;34592;-62
2022/09/09 01:51:18;;;;;;;;;;;;;;;22.78;58.22;99335.03;4468381;32;33941;-63
2022/09/09 01:53:47;;;;;;;;;;;;;;;22.56;58.97;99342.47;4483511;32;35548;-63
2022/09/09 01:56:17;;;;;;;;;;;;;;;22.55;58.70;99338.91;4480076;32;35500;-62
2022/09/09 01:59:17;;;;;;;;;;;;;;;22.69;58.65;99325.34;4475634;32;33513;-63
2022/09/09 02:01:53;;;;;;;;;;;;;;;22.61;59.31;99328.25;4442842;31;35318;-62
2022/09/09 02:04:20;;;;;;;;;;;;;;;22.54;59.58;99326.31;4474606;32;35502;-63
2022/09/09 02:06:48;;;;;;;;;;;;;;;22.35;59.95;99329.78;4478037;32;34415;-62
2022/09/09 02:09:16;;;;;;;;;;;;;;;22.30;60.23;99324.94;4481190;32;33742;-62
2022/09/09 02:11:43;;;;;;;;;;;;;;;22.54;59.58;99337.25;4479635;32;35294;-62
2022/09/09 02:14:12;;;;;;;;;;;;;;;22.24;60.02;99328.44;4468133;32;34327;-62
2022/09/09 02:16:57;;;;;;;;;;;;;;;22.44;59.52;99325.88;4472334;32;34471;-62
2022/09/09 02:19:27;;;;;;;;;;;;;;;22.66;58.71;99331.19;4482384;32;33525;-62
2022/09/09 02:21:55;;;;;;;;;;;;;;;22.74;58.26;99328.31;4478305;32;35272;-62
2022/09/09 02:24:22;;;;;;;;;;;;;;;22.79;58.44;99325.78;4480044;32;35867;-62
2022/09/09 02:26:52;;;;;;;;;;;;;;;22.76;58.33;99326.19;4472429;32;34325;-63
2022/09/09 02:29:23;;;;;;;;;;;;;;;22.72;58.14;99320.31;4483671;32;34558;-62
2022/09/09 02:31:51;;;;;;;;;;;;;;;22.67;58.14;99316.53;4477524;32;35147;-64
2022/09/09 02:34:19;;;;;;;;;;;;;;;22.59;58.21;99325.72;4483879;32;34541;-64
2022/09/09 02:36:46;;;;;;;;;;;;;;;22.69;58.01;99322.59;4479741;32;34024;-64
2022/09/09 02:39:14;;;;;;;;;;;;;;;22.55;58.52;99314.37;4476322;32;34404;-64
2022/09/09 02:41:42;;;;;;;;;;;;;;;22.39;58.86;99314.72;4468270;32;33795;-62
2022/09/09 02:44:10;;;;;;;;;;;;;;;22.30;59.17;99314.03;4483243;32;33663;-61
2022/09/09 02:46:58;;;;;;;;;;;;;;;22.41;58.78;99315.34;4478859;32;35591;-63
2022/09/09 02:49:32;;;;;;;;;;;;;;;22.30;59.19;99321.38;4475408;32;34818;-61
2022/09/09 02:52:06;;;;;;;;;;;;;;;22.38;59.21;99317.66;4472452;32;35305;-64
2022/09/09 02:54:43;;;;;;;;;;;;;;;22.05;59.87;99323.69;4474840;32;35527;-62
2022/09/09 02:57:12;;;;;;;;;;;;;;;22.40;58.88;99321.84;4482142;32;34289;-62
2022/09/09 02:59:41;;;;;;;;;;;;;;;22.15;59.51;99316.00;4472764;32;33405;-62
2022/09/09 03:02:09;;;;;;;;;;;;;;;22.31;58.98;99331.22;4480468;32;34938;-62
2022/09/09 03:04:37;;;;;;;;;;;;;;;22.44;58.45;99331.31;4481204;32;34013;-62
2022/09/09 03:07:05;;;;;;;;;;;;;;;22.38;59.06;99337.56;4483688;32;34229;-62
2022/09/09 03:09:32;;;;;;;;;;;;;;;22.36;59.41;99334.19;4480359;32;34415;-64
2022/09/09 03:12:00;;;;;;;;;;;;;;;22.37;59.35;99332.31;4480874;32;32834;-63
2022/09/09 03:14:28;;;;;;;;;;;;;;;22.55;58.33;99340.81;4477803;32;33943;-62
2022/09/09 03:16:57;;;;;;;;;;;;;;;22.56;58.57;99343.31;4483578;32;33119;-62
2022/09/09 03:19:25;;;;;;;;;;;;;;;22.29;59.19;99331.44;4482998;32;33219;-63
2022/09/09 03:21:52;;;;;;;;;;;;;;;22.51;58.49;99342.25;4481385;32;34989;-62
2022/09/09 03:24:20;;;;;;;;;;;;;;;22.31;58.76;99344.84;4481962;32;35654;-62
2022/09/09 03:26:47;;;;;;;;;;;;;;;22.12;59.92;99343.66;4480552;32;34496;-62
2022/09/09 03:29:16;;;;;;;;;;;;;;;22.31;59.46;99333.94;4476462;32;32185;-63
2022/09/09 03:31:44;;;;;;;;;;;;;;;22.02;59.60;99335.84;4479515;32;34133;-63
2022/09/09 03:34:13;;;;;;;;;;;;;;;21.82;60.32;99327.50;4478872;32;34202;-63
2022/09/09 03:36:41;;;;;;;;;;;;;;;22.02;59.78;99326.81;4482084;32;34511;-63
2022/09/09 03:39:08;;;;;;;;;;;;;;;21.78;60.85;99326.22;4481874;32;33765;-63
2022/09/09 03:41:37;;;;;;;;;;;;;;;21.58;61.82;99326.06;4482373;32;34184;-63
2022/09/09 03:44:05;;;;;;;;;;;;;;;21.93;60.56;99334.31;4475028;32;33940;-63
2022/09/09 03:46:33;;;;;;;;;;;;;;;21.50;61.89;99337.06;4480328;32;34479;-63
2022/09/09 03:49:02;;;;;;;;;;;;;;;21.72;61.29;99335.16;4481607;32;32245;-64
2022/09/09 03:51:30;;;;;;;;;;;;;;;21.93;60.53;99345.19;4472623;32;33866;-63
2022/09/09 03:53:58;;;;;;;;;;;;;;;21.61;61.44;99346.63;4466482;32;34160;-63
2022/09/09 03:56:25;;;;;;;;;;;;;;;21.57;61.86;99350.75;4477699;32;34472;-64
2022/09/09 03:58:53;;;;;;;;;;;;;;;21.70;61.53;99350.03;4477982;32;33630;-63
2022/09/09 04:01:21;;;;;;;;;;;;;;;21.50;61.93;99356.13;4474145;32;33949;-63
2022/09/09 04:03:50;;;;;;;;;;;;;;;21.72;61.12;99353.41;4478712;32;34988;-63
2022/09/09 04:06:17;;;;;;;;;;;;;;;21.82;60.60;99353.91;4478824;32;34457;-63
2022/09/09 04:08:45;;;;;;;;;;;;;;;21.71;60.93;99349.00;4480286;32;34465;-64
2022/09/09 04:11:13;;;;;;;;;;;;;;;21.26;62.53;99342.88;4480599;32;33801;-63
2022/09/09 04:13:41;;;;;;;;;;;;;;;21.26;62.64;99342.88;4481052;32;35415;-63
2022/09/09 04:16:10;;;;;;;;;;;;;;;20.77;63.74;99358.03;4479561;32;34506;-63
2022/09/09 04:18:38;;;;;;;;;;;;;;;21.33;62.14;99354.69;4482937;32;33501;-64
2022/09/09 04:21:07;;;;;;;;;;;;;;;20.67;64.29;99357.44;4480557;32;34341;-63
2022/09/09 04:23:35;;;;;;;;;;;;;;;21.40;62.06;99348.28;4476078;32;34030;-63
2022/09/09 04:26:04;;;;;;;;;;;;;;;21.75;60.87;99351.13;4482889;32;33200;-62
2022/09/09 04:28:32;;;;;;;;;;;;;;;21.66;60.74;99355.03;4483339;32;33481;-64
2022/09/09 04:31:17;;;;;;;;;;;;;;;21.37;61.86;99353.28;4484180;32;34259;-62
2022/09/09 04:33:46;;;;;;;;;;;;;;;21.39;61.91;99353.94;4484643;32;34261;-63
2022/09/09 04:36:13;;;;;;;;;;;;;;;21.31;62.00;99359.47;4483679;32;35437;-62
2022/09/09 04:38:41;;;;;;;;;;;;;;;21.15;62.53;99345.09;4480383;32;33353;-62
2022/09/09 04:41:10;;;;;;;;;;;;;;;20.82;63.52;99346.56;4480674;32;33646;-62
2022/09/09 04:43:38;;;;;;;;;;;;;;;20.58;65.06;99339.56;4484207;32;34120;-61
2022/09/09 04:46:06;;;;;;;;;;;;;;;20.78;64.04;99337.09;4482501;32;34209;-62
2022/09/09 04:48:34;;;;;;;;;;;;;;;20.60;64.52;99340.22;4482543;32;33590;-63
2022/09/09 04:51:04;;;;;;;;;;;;;;;20.86;63.76;99339.69;4483015;32;32844;-63
2022/09/09 04:53:33;;;;;;;;;;;;;;;20.85;63.62;99333.41;4475898;32;34212;-62
2022/09/09 04:56:02;;;;;;;;;;;;;;;21.00;63.51;99338.00;4478984;32;34170;-61
2022/09/09 04:58:30;;;;;;;;;;;;;;;20.69;64.89;99341.78;4480105;32;32163;-62
2022/09/09 05:01:05;;;;;;;;;;;;;;;21.20;62.88;99339.06;4481984;32;34384;-63
2022/09/09 05:03:32;;;;;;;;;;;;;;;20.43;65.30;99348.53;4481270;32;33768;-63
2022/09/09 05:06:10;;;;;;;;;;;;;;;20.82;64.27;99357.44;4477629;32;35579;-62
2022/09/09 05:08:38;;;;;;;;;;;;;;;21.29;62.64;99351.50;4481636;32;32494;-62
2022/09/09 05:11:16;;;;;;;;;;;;;;;21.23;62.90;99351.44;4483561;32;33112;-63
2022/09/09 05:13:44;;;;;;;;;;;;;;;21.38;62.29;99346.81;4481920;32;35540;-62
2022/09/09 05:16:11;;;;;;;;;;;;;;;21.37;62.34;99348.66;4482547;32;34465;-62
2022/09/09 05:18:40;;;;;;;;;;;;;;;21.20;62.83;99358.09;4483634;32;34420;-62
2022/09/09 05:21:07;;;;;;;;;;;;;;;20.90;63.72;99355.47;4481415;32;33840;-62
2022/09/09 05:23:35;;;;;;;;;;;;;;;20.58;65.04;99350.44;4482903;32;34524;-62
2022/09/09 05:26:02;;;;;;;;;;;;;;;21.27;62.93;99348.13;4474434;32;34505;-62
2022/09/09 05:28:30;;;;;;;;;;;;;;;21.29;62.86;99359.66;4477951;32;34274;-62
2022/09/09 05:31:04;;;;;;;;;;;;;;;21.64;62.01;99368.00;4483026;32;33690;-62
2022/09/09 05:33:33;;;;;;;;;;;;;;;21.63;61.89;99371.75;4482229;32;33913;-62
2022/09/09 05:36:02;;;;;;;;;;;;;;;21.35;62.86;99368.97;4480662;32;34541;-62
2022/09/09 05:38:30;;;;;;;;;;;;;;;21.47;62.48;99361.97;4480447;32;33185;-61
2022/09/09 05:40:57;;;;;;;;;;;;;;;21.87;61.28;99370.50;4475215;32;34027;-62
2022/09/09 05:43:25;;;;;;;;;;;;;;;21.85;61.45;99370.69;4476881;32;34293;-62
2022/09/09 05:46:01;;;;;;;;;;;;;;;22.00;61.18;99373.34;4475214;32;33257;-62
2022/09/09 05:48:29;;;;;;;;;;;;;;;22.09;60.53;99377.59;4480141;32;33092;-62
2022/09/09 05:50:57;;;;;;;;;;;;;;;22.12;59.65;99372.78;4480736;31;34163;-62
2022/09/09 05:53:25;;;;;;;;;;;;;;;22.15;59.80;99372.38;4481903;32;34904;-62
2022/09/09 05:56:00;;;;;;;;;;;;;;;22.35;59.15;99369.84;4481566;32;34442;-62
2022/09/09 05:58:28;;;;;;;;;;;;;;;22.26;59.01;99371.88;4478521;32;33692;-62
2022/09/09 06:01:06;;;;;;;;;;;;;;;22.42;59.05;99378.91;4478710;32;34058;-63
2022/09/09 06:03:34;;;;;;;;;;;;;;;22.25;59.24;99381.94;4474460;32;32977;-62
2022/09/09 06:06:12;;;;;;;;;;;;;;;22.28;59.78;99378.00;4475621;32;34464;-62
2022/09/09 06:08:42;;;;;;;;;;;;;;;22.18;59.44;99377.47;4480327;32;34263;-63
2022/09/09 06:11:11;;;;;;;;;;;;;;;22.32;59.32;99380.09;4473783;32;33769;-62
2022/09/09 06:13:39;;;;;;;;;;;;;;;22.43;59.60;99358.78;4478821;32;34361;-61
2022/09/09 06:16:11;;;;;;;;;;;;;;;22.35;60.54;99367.13;4471384;32;35471;-61
2022/09/09 06:18:39;;;;;;;;;;;;;;;22.27;60.40;99368.09;4479774;32;33936;-62
2022/09/09 06:21:08;;;;;;;;;;;;;;;21.86;61.51;99366.94;4479249;32;34336;-62
2022/09/09 06:23:35;;;;;;;;;;;;;;;21.87;62.11;99371.34;4468748;32;35033;-61
2022/09/09 06:26:05;;;;;;;;;;;;;;;21.82;62.61;99367.53;4475646;32;34234;-61
2022/09/09 06:28:33;;;;;;;;;;;;;;;22.57;60.40;99371.44;4483141;32;33665;-61
2022/09/09 06:31:01;;;;;;;;;;;;;;;22.83;59.73;99373.47;4479803;32;32581;-61
2022/09/09 06:33:35;;;;;;;;;;;;;;;22.72;59.36;99374.03;4483498;32;34081;-61
2022/09/09 06:36:06;;;;;;;;;;;;;;;22.09;62.28;99372.16;4478121;32;34540;-62
2022/09/09 06:38:33;;;;;;;;;;;;;;;22.95;59.36;99369.16;4478020;32;32523;-61
2022/09/09 06:41:01;;;;;;;;;;;;;;;22.59;59.06;99365.78;4480578;32;34286;-62
2022/09/09 06:43:29;;;;;;;;;;;;;;;22.62;60.00;99371.66;4479483;32;35466;-62
2022/09/09 06:45:57;;;;;;;;;;;;;;;22.88;59.48;99372.84;4482129;32;32945;-62
2022/09/09 06:48:25;;;;;;;;;;;;;;;22.89;58.91;99377.25;4480314;32;33250;-62
2022/09/09 06:51:01;;;;;;;;;;;;;;;21.63;63.09;99380.75;4474602;32;33918;-61
2022/09/09 06:53:29;;;;;;;;;;;;;;;22.14;61.03;99379.72;4480626;32;34408;-63
2022/09/09 06:55:57;;;;;;;;;;;;;;;22.77;59.64;99387.91;4480281;32;35222;-61
2022/09/09 06:58:25;;;;;;;;;;;;;;;23.08;59.10;99386.59;4476952;32;34039;-62
2022/09/09 07:01:00;;;;;;;;;;;;;;;22.93;58.99;99386.72;4478767;32;32896;-61
2022/09/09 07:03:28;;;;;;;;;;;;;;;22.58;59.62;99388.66;4473044;32;34259;-61
2022/09/09 07:05:56;;;;;;;;;;;;;;;23.11;58.31;99397.09;4479924;32;34252;-64
2022/09/09 07:08:24;;;;;;;;;;;;;;;23.20;57.49;99399.44;4473797;32;33659;-64
2022/09/09 07:10:59;;;;;;;;;;;;;;;22.89;58.22;99405.41;4470543;32;32808;-61
2022/09/09 07:13:27;;;;;;;;;;;;;;;22.84;58.22;99404.31;4471826;32;34223;-62
2022/09/09 07:15:54;;;;;;;;;;;;;;;22.40;60.33;99395.44;4473553;32;34450;-61
2022/09/09 07:18:22;;;;;;;;;;;;;;;22.54;60.13;99394.50;4477489;32;33484;-61
2022/09/09 07:20:53;;;;;;;;;;;;;;;22.52;61.49;99388.41;4477726;32;35216;-61
2022/09/09 07:23:20;;;;;;;;;;;;;;;22.67;59.15;99395.62;4474641;32;34003;-62
2022/09/09 07:25:48;;;;;;;;;;;;;;;22.71;58.70;99395.03;4474166;32;34725;-61
2022/09/09 07:28:15;;;;;;;;;;;;;;;22.74;58.28;99389.16;4481511;32;34458;-62
2022/09/09 07:30:43;;;;;;;;;;;;;;;23.07;57.23;99395.84;4478017;32;33894;-61
2022/09/09 07:33:10;;;;;;;;;;;;;;;22.74;58.75;99393.78;4478008;32;35110;-62
2022/09/09 07:35:37;;;;;;;;;;;;;;;22.71;59.11;99392.28;4480075;32;34588;-62
2022/09/09 07:38:06;;;;;;;;;;;;;;;22.61;58.73;99399.16;4482188;32;34433;-62
2022/09/09 07:40:35;;;;;;;;;;;;;;;22.33;61.38;99391.84;4473010;32;32486;-61
2022/09/09 07:43:03;;;;;;;;;;;;;;;22.96;59.43;99402.72;4474330;32;34956;-62
2022/09/09 07:45:33;;;;;;;;;;;;;;;22.59;60.78;99409.41;4479826;32;34008;-61
2022/09/09 07:48:00;;;;;;;;;;;;;;;22.32;60.87;99410.09;4478483;32;34454;-62
2022/09/09 07:50:28;;;;;;;;;;;;;;;22.54;59.33;99415.50;4474875;32;34864;-61
2022/09/09 07:52:56;;;;;;;;;;;;;;;22.23;60.35;99403.09;4475582;32;34285;-61
2022/09/09 07:55:25;;;;;;;;;;;;;;;22.51;59.55;99405.81;4484755;32;33254;-63
2022/09/09 07:57:53;;;;;;;;;;;;;;;22.53;57.75;99409.16;4477262;32;33677;-64
2022/09/09 08:00:21;;;;;;;;;;;;;;;22.30;60.06;99403.16;4476873;32;33953;-61
2022/09/09 08:02:50;;;;;;;;;;;;;;;23.05;58.92;99406.09;4473668;32;35496;-62
2022/09/09 08:05:18;;;;;;;;;;;;;;;22.93;59.19;99412.16;4474431;32;34114;-61
2022/09/09 08:07:45;;;;;;;;;;;;;;;23.15;58.70;99406.59;4479093;32;32097;-62
2022/09/09 08:10:14;;;;;;;;;;;;;;;22.77;59.99;99398.84;4476881;32;33530;-61
2022/09/09 08:12:42;;;;;;;;;;;;;;;22.61;60.89;99401.91;4481737;32;34496;-62
2022/09/09 08:15:30;;;;;;;;;;;;;;;22.74;59.79;99400.06;4482782;32;32968;-63
2022/09/09 08:17:58;;;;;;;;;;;;;;;23.31;57.75;99402.66;4479306;32;34663;-61
2022/09/09 08:20:25;;;;;;;;;;;;;;;23.46;57.82;99395.12;4475335;32;33611;-61
2022/09/09 08:22:54;;;;;;;;;;;;;;;23.19;58.50;99397.78;4473623;32;35499;-61
2022/09/09 08:25:22;;;;;;;;;;;;;;;23.34;58.33;99400.34;4477645;31;34255;-61
2022/09/09 08:27:49;;;;;;;;;;;;;;;23.39;56.65;99406.03;4474510;32;33585;-61
2022/09/09 08:30:16;;;;;;;;;;;;;;;23.35;56.96;99396.56;4477326;31;34132;-61
2022/09/09 08:32:44;;;;;;;;;;;;;;;23.63;55.80;99392.84;4471426;32;34631;-61
2022/09/09 08:35:13;;;;;;;;;;;;;;;24.09;54.86;99394.81;4473665;32;35782;-61
2022/09/09 08:37:41;;;;;;;;;;;;;;;23.60;55.31;99401.47;4474000;31;33177;-61
2022/09/09 08:40:10;;;;;;;;;;;;;;;23.73;56.20;99401.53;4479643;31;34007;-61
2022/09/09 08:42:41;;;;;;;;;;;;;;;24.35;53.33;99397.50;4474054;32;33992;-61
2022/09/09 08:45:15;;;;;;;;;;;;;;;24.18;53.68;99409.94;4477811;32;32805;-62
2022/09/09 08:48:04;;;;;;;;;;;;;;;23.98;53.73;99417.28;4477263;31;33476;-61
2022/09/09 08:50:41;;;;;;;;;;;;;;;23.98;52.78;99409.09;4478141;32;35238;-61
2022/09/09 08:53:08;;;;;;;;;;;;;;;24.19;53.92;99411.63;4459759;32;32688;-61
2022/09/09 08:55:41;;;;;;;;;;;;;;;24.35;50.81;99408.44;4474215;32;34197;-61
2022/09/09 08:58:13;;;;;;;;;;;;;;;24.57;50.63;99405.50;4467717;32;33501;-61
2022/09/09 09:01:02;;;;;;;;;;;;;;;24.65;51.27;99408.00;4462565;32;32773;-61
2022/09/09 09:03:32;;;;;;;;;;;;;;;24.79;48.89;99406.09;4439845;32;34025;-62
2022/09/09 09:06:15;;;;;;;;;;;;;;;25.02;50.17;99405.56;4476439;32;34219;-62
2022/09/09 09:08:52;;;;;;;;;;;;;;;24.85;49.73;99408.81;4475732;31;31835;-62
2022/09/09 09:11:22;;;;;;;;;;;;;;;25.02;48.64;99398.19;4472478;32;35151;-62
2022/09/09 09:13:53;;;;;;;;;;;;;;;24.85;49.29;99408.81;4478324;31;34266;-62
2022/09/09 09:16:23;;;;;;;;;;;;;;;25.40;48.40;99400.16;4474234;32;32864;-62
2022/09/09 09:18:51;;;;;;;;;;;;;;;25.43;48.92;99402.47;4478542;31;32219;-61
2022/09/09 09:21:25;;;;;;;;;;;;;;;25.45;46.59;99397.59;4470045;32;35580;-63
2022/09/09 09:23:55;;;;;;;;;;;;;;;25.59;47.55;99386.56;4467849;32;35294;-61
2022/09/09 09:26:24;;;;;;;;;;;;;;;25.02;49.59;99391.87;4456868;32;32687;-61
2022/09/09 09:28:52;;;;;;;;;;;;;;;25.71;47.67;99390.25;4473640;32;33629;-62
2022/09/09 09:31:20;;;;;;;;;;;;;;;25.81;46.16;99387.06;4472629;32;34031;-61
2022/09/09 09:33:52;;;;;;;;;;;;;;;25.98;45.42;99377.22;4481112;32;34380;-61
2022/09/09 09:36:21;;;;;;;;;;;;;;;25.16;47.30;99385.31;4480705;31;34707;-61
2022/09/09 09:38:56;;;;;;;;;;;;;;;25.30;45.98;99377.88;4462476;32;31918;-61
2022/09/09 09:41:45;;;;;;;;;;;;;;;25.96;44.58;99379.34;4476325;31;35178;-62
2022/09/09 09:44:24;;;;;;;;;;;;;;;25.84;45.57;99378.38;4471999;32;34109;-62
2022/09/09 09:46:52;;;;;;;;;;;;;;;25.62;46.08;99384.22;4474518;32;34803;-64
2022/09/09 09:49:20;;;;;;;;;;;;;;;26.01;43.67;99390.50;4481342;32;33534;-61
2022/09/09 09:51:47;;;;;;;;;;;;;;;25.88;45.33;99385.13;4478193;31;32414;-62
2022/09/09 09:54:18;;;;;;;;;;;;;;;25.61;42.87;99392.66;4466578;32;34478;-62
2022/09/09 09:56:47;;;;;;;;;;;;;;;26.11;41.37;99387.25;4469683;32;32642;-61
2022/09/09 09:59:22;;;;;;;;;;;;;;;26.29;41.27;99390.00;4476296;32;33556;-61
2022/09/09 10:02:26;;;;;;;;;;;;;;;26.12;40.58;99387.00;4477264;32;35000;-62
2022/09/09 10:05:02;;;;;;;;;;;;;;;26.75;41.00;99388.75;4472919;32;34416;-61
2022/09/09 10:07:30;;;;;;;;;;;;;;;27.20;38.90;99376.59;4477296;32;34692;-62
2022/09/09 10:09:58;;;;;;;;;;;;;;;26.64;39.08;99382.09;4473972;32;33560;-63
2022/09/09 10:12:42;;;;;;;;;;;;;;;26.77;37.77;99381.09;4462624;32;32171;-62
2022/09/09 10:15:09;;;;;;;;;;;;;;;27.10;36.80;99385.38;4482240;32;33836;-61
2022/09/09 10:17:40;;;;;;;;;;;;;;;27.09;36.86;99378.19;4475682;32;33488;-63
2022/09/09 10:20:23;;;;;;;;;;;;;;;26.71;39.15;99379.28;4475585;32;32255;-61
2022/09/09 10:22:51;;;;;;;;;;;;;;;26.87;38.69;99375.06;4480042;32;35188;-62
2022/09/09 10:25:19;;;;;;;;;;;;;;;27.07;37.05;99374.84;4477421;32;34397;-61
2022/09/09 10:27:56;;;;;;;;;;;;;;;27.32;34.12;99377.47;4470776;32;33789;-61
2022/09/09 10:30:29;;;;;;;;;;;;;;;27.44;34.70;99383.84;4479546;32;34497;-61
2022/09/09 10:33:09;;;;;;;;;;;;;;;27.57;36.18;99372.66;4471684;32;32686;-61
2022/09/09 10:35:48;;;;;;;;;;;;;;;27.87;34.88;99377.34;4469545;32;34414;-61
2022/09/09 10:38:16;;;;;;;;;;;;;;;27.93;36.04;99376.41;4467149;32;32815;-62
2022/09/09 10:40:51;;;;;;;;;;;;;;;28.04;35.57;99377.47;4482142;32;33383;-63
2022/09/09 10:43:38;;;;;;;;;;;;;;;27.89;34.77;99379.84;4482623;32;35270;-61
2022/09/09 10:46:24;;;;;;;;;;;;;;;28.52;34.33;99379.19;4482722;32;34190;-64
2022/09/09 10:49:08;;;;;;;;;;;;;;;28.55;33.91;99378.72;4483678;32;34564;-63
2022/09/09 10:51:49;;;;;;;;;;;;;;;28.67;32.14;99368.53;4473084;32;34974;-62
2022/09/09 10:54:35;;;;;;;;;;;;;;;28.66;33.39;99368.75;4473180;32;34570;-63
2022/09/09 10:57:08;;;;;;;;;;;;;;;28.54;33.25;99368.78;4478603;32;34246;-62
2022/09/09 10:59:47;;;;;;;;;;;;;;;28.18;33.13;99362.41;4475233;32;33924;-62
2022/09/09 11:02:19;;;;;;;;;;;;;;;28.33;35.22;99371.03;4477526;32;33026;-63
2022/09/09 11:05:02;;;;;;;;;;;;;;;28.96;31.85;99360.31;4460169;32;34251;-63
2022/09/09 11:07:48;;;;;;;;;;;;;;;28.53;31.99;99364.34;4479726;32;35488;-64
2022/09/09 11:10:24;;;;;;;;;;;;;;;28.30;32.70;99356.91;4481448;32;34499;-62
2022/09/09 11:12:53;;;;;;;;;;;;;;;28.94;32.08;99351.44;4479226;32;33324;-62
2022/09/09 11:15:22;;;;;;;;;;;;;;;28.81;31.67;99355.31;4480538;32;35301;-63
2022/09/09 11:17:50;;;;;;;;;;;;;;;28.65;32.97;99347.81;4470376;32;34354;-63
2022/09/09 11:20:18;;;;;;;;;;;;;;;29.01;32.06;99343.91;4473404;32;34469;-62
2022/09/09 11:22:50;;;;;;;;;;;;;;;28.31;32.53;99345.66;4466955;32;31869;-62
2022/09/09 11:25:23;;;;;;;;;;;;;;;28.58;33.33;99358.13;4478985;32;34037;-62
2022/09/09 11:28:07;;;;;;;;;;;;;;;28.73;33.29;99353.78;4480220;32;34283;-62
2022/09/09 11:30:58;;;;;;;;;;;;;;;28.47;33.16;99365.28;4467827;32;32937;-62
2022/09/09 11:33:41;;;;;;;;;;;;;;;28.42;33.78;99366.03;4464777;32;31495;-63
2022/09/09 11:36:20;;;;;;;;;;;;;;;28.16;33.92;99372.00;4475244;32;34039;-62
2022/09/09 11:38:51;;;;;;;;;;;;;;;28.51;32.67;99366.50;4480412;32;34142;-63
2022/09/09 11:41:20;;;;;;;;;;;;;;;28.38;32.77;99367.56;4475450;32;34572;-63
2022/09/09 11:43:54;;;;;;;;;;;;;;;27.38;34.22;99360.06;4467541;32;31985;-63
2022/09/09 11:46:22;;;;;;;;;;;;;;;27.60;35.08;99354.88;4481178;32;35125;-63
2022/09/09 11:49:03;;;;;;;;;;;;;;;28.27;33.51;99360.13;4475202;32;34403;-63
2022/09/09 11:51:31;;;;;;;;;;;;;;;28.46;34.58;99366.38;4477607;32;35515;-62
2022/09/09 11:54:01;;;;;;;;;;;;;;;28.25;33.16;99359.53;4458453;32;32869;-62
2022/09/09 11:56:32;;;;;;;;;;;;;;;28.05;35.25;99354.38;4478240;32;34058;-62
2022/09/09 11:59:02;;;;;;;;;;;;;;;28.39;34.52;99349.12;4475787;32;35856;-63
2022/09/09 12:01:30;;;;;;;;;;;;;;;27.63;35.46;99351.66;4478713;32;34614;-63
2022/09/09 12:04:06;;;;;;;;;;;;;;;27.02;36.39;99353.53;4470164;32;32696;-63
2022/09/09 12:06:54;;;;;;;;;;;;;;;27.39;35.56;99354.34;4478606;32;34701;-63
2022/09/09 12:09:23;;;;;;;;;;;;;;;27.33;36.41;99358.03;4470330;32;34318;-63
2022/09/09 12:11:50;;;;;;;;;;;;;;;27.57;35.11;99367.16;4468646;32;32986;-63
2022/09/09 12:14:37;;;;;;;;;;;;;;;27.97;34.63;99372.09;4475235;32;33346;-62
2022/09/09 12:17:10;;;;;;;;;;;;;;;28.15;34.30;99371.13;4474019;32;38087;-63
2022/09/09 12:19:38;;;;;;;;;;;;;;;27.90;35.26;99359.50;4473489;32;32898;-63
2022/09/09 12:22:16;;;;;;;;;;;;;;;28.40;34.49;99359.09;4481437;32;32935;-63
2022/09/09 12:24:46;;;;;;;;;;;;;;;27.82;34.33;99352.44;4475388;32;34585;-63
2022/09/09 12:27:14;;;;;;;;;;;;;;;28.46;34.93;99355.38;4472053;32;32740;-63
2022/09/09 12:29:43;;;;;;;;;;;;;;;28.50;32.98;99354.63;4479579;32;35298;-63
2022/09/09 12:32:20;;;;;;;;;;;;;;;28.72;33.01;99335.56;4478512;32;33697;-63
2022/09/09 12:34:49;;;;;;;;;;;;;;;28.61;32.96;99333.69;4479824;32;33727;-63
2022/09/09 12:37:35;;;;;;;;;;;;;;;28.60;32.79;99337.50;4472007;32;33638;-62
2022/09/09 12:40:06;;;;;;;;;;;;;;;28.83;32.48;99322.87;4473953;32;34201;-63
2022/09/09 12:42:39;;;;;;;;;;;;;;;28.64;33.02;99324.94;4474702;32;34180;-62
2022/09/09 12:45:16;;;;;;;;;;;;;;;28.56;32.60;99326.16;4484546;32;33619;-62
2022/09/09 12:47:47;;;;;;;;;;;;;;;28.64;31.30;99313.09;4478387;32;33927;-63
2022/09/09 12:50:15;;;;;;;;;;;;;;;28.68;30.15;99312.38;4482112;32;34044;-62
2022/09/09 12:52:42;;;;;;;;;;;;;;;28.46;31.26;99327.84;4475417;32;34430;-62
2022/09/09 12:55:17;;;;;;;;;;;;;;;28.95;31.19;99315.37;4466972;32;33013;-62
2022/09/09 12:57:45;;;;;;;;;;;;;;;28.81;32.70;99305.75;4471744;32;33875;-62
2022/09/09 13:00:14;;;;;;;;;;;;;;;28.32;33.25;99302.47;4472535;32;33865;-63
2022/09/09 13:02:50;;;;;;;;;;;;;;;28.96;32.00;99295.03;4469020;32;33970;-63
2022/09/09 13:05:19;;;;;;;;;;;;;;;28.73;32.49;99289.59;4476884;31;33778;-63
2022/09/09 13:07:47;;;;;;;;;;;;;;;28.65;31.38;99284.47;4472578;32;34469;-62
2022/09/09 13:10:15;;;;;;;;;;;;;;;28.66;31.91;99284.22;4457607;32;31968;-63